sensor_id;sensor_type;location;lat;lon;timestamp;pressure;altitude;pressure_sealevel;temperature;humidity
81224;BME280;70698;44.402;18.522;2023-08-12T00:01:39;98224.81;;;13.84;70.14
81224;BME280;70698;44.402;18.522;2023-08-12T00:04:05;98228.03;;;13.94;69.55
81224;BME280;70698;44.402;18.522;2023-08-12T00:06:30;98232.03;;;13.90;70.18
81224;BME280;70698;44.402;18.522;2023-08-12T00:08:56;98218.31;;;13.86;69.56
81224;BME280;70698;44.402;18.522;2023-08-12T00:11:21;98232.44;;;13.78;70.17
81224;BME280;70698;44.402;18.522;2023-08-12T00:13:47;98219.56;;;13.75;70.04
81224;BME280;70698;44.402;18.522;2023-08-12T00:16:13;98222.31;;;13.82;69.56
81224;BME280;70698;44.402;18.522;2023-08-12T00:18:38;98222.53;;;13.95;69.07
81224;BME280;70698;44.402;18.522;2023-08-12T00:21:07;98219.19;;;14.01;69.22
81224;BME280;70698;44.402;18.522;2023-08-12T00:23:40;98217.34;;;13.87;68.63
81224;BME280;70698;44.402;18.522;2023-08-12T00:26:06;98210.16;;;13.96;67.36
81224;BME280;70698;44.402;18.522;2023-08-12T00:28:33;98214.28;;;13.98;69.04
81224;BME280;70698;44.402;18.522;2023-08-12T00:30:59;98196.94;;;13.96;68.76
81224;BME280;70698;44.402;18.522;2023-08-12T00:33:24;98211.38;;;14.08;67.62
81224;BME280;70698;44.402;18.522;2023-08-12T00:35:50;98203.88;;;13.97;69.42
81224;BME280;70698;44.402;18.522;2023-08-12T00:38:15;98215.97;;;13.91;69.68
81224;BME280;70698;44.402;18.522;2023-08-12T00:40:41;98207.16;;;13.76;69.83
81224;BME280;70698;44.402;18.522;2023-08-12T00:43:07;98217.44;;;13.71;69.70
81224;BME280;70698;44.402;18.522;2023-08-12T00:45:34;98211.75;;;13.59;70.54
81224;BME280;70698;44.402;18.522;2023-08-12T00:48:01;98213.31;;;13.46;70.73
81224;BME280;70698;44.402;18.522;2023-08-12T00:50:28;98216.31;;;13.43;71.08
81224;BME280;70698;44.402;18.522;2023-08-12T00:52:55;98219.84;;;13.58;70.60
81224;BME280;70698;44.402;18.522;2023-08-12T00:55:21;98211.78;;;13.28;71.61
81224;BME280;70698;44.402;18.522;2023-08-12T00:57:47;98203.88;;;13.20;71.32
81224;BME280;70698;44.402;18.522;2023-08-12T01:00:14;98216.41;;;13.26;72.21
81224;BME280;70698;44.402;18.522;2023-08-12T01:02:42;98221.06;;;13.16;71.91
81224;BME280;70698;44.402;18.522;2023-08-12T01:05:11;98218.56;;;13.23;71.95
81224;BME280;70698;44.402;18.522;2023-08-12T01:07:36;98217.38;;;13.33;71.69
81224;BME280;70698;44.402;18.522;2023-08-12T01:10:02;98221.50;;;13.28;72.18
81224;BME280;70698;44.402;18.522;2023-08-12T01:12:32;98214.44;;;13.20;72.71
81224;BME280;70698;44.402;18.522;2023-08-12T01:15:08;98211.19;;;13.18;72.59
81224;BME280;70698;44.402;18.522;2023-08-12T01:17:38;98209.88;;;13.14;72.77
81224;BME280;70698;44.402;18.522;2023-08-12T01:20:06;98214.81;;;13.09;73.04
81224;BME280;70698;44.402;18.522;2023-08-12T01:22:41;98219.13;;;13.02;72.85
81224;BME280;70698;44.402;18.522;2023-08-12T01:25:09;98226.59;;;12.90;73.62
81224;BME280;70698;44.402;18.522;2023-08-12T01:27:35;98227.81;;;12.72;74.36
81224;BME280;70698;44.402;18.522;2023-08-12T01:30:02;98224.00;;;12.82;73.46
81224;BME280;70698;44.402;18.522;2023-08-12T01:32:43;98228.78;;;12.79;74.17
81224;BME280;70698;44.402;18.522;2023-08-12T01:35:20;98225.31;;;12.78;74.10
81224;BME280;70698;44.402;18.522;2023-08-12T01:37:49;98225.16;;;12.80;73.79
81224;BME280;70698;44.402;18.522;2023-08-12T01:40:17;98221.50;;;12.89;73.69
81224;BME280;70698;44.402;18.522;2023-08-12T01:42:44;98220.38;;;12.83;74.12
81224;BME280;70698;44.402;18.522;2023-08-12T01:45:10;98214.50;;;13.04;72.05
81224;BME280;70698;44.402;18.522;2023-08-12T01:47:36;98213.84;;;13.02;71.79
81224;BME280;70698;44.402;18.522;2023-08-12T01:50:02;98216.78;;;13.15;71.59
81224;BME280;70698;44.402;18.522;2023-08-12T01:52:28;98215.78;;;13.24;71.14
81224;BME280;70698;44.402;18.522;2023-08-12T01:54:54;98207.72;;;13.10;71.98
81224;BME280;70698;44.402;18.522;2023-08-12T01:57:21;98224.13;;;12.89;73.48
81224;BME280;70698;44.402;18.522;2023-08-12T01:59:46;98221.31;;;12.90;73.68
81224;BME280;70698;44.402;18.522;2023-08-12T02:02:12;98225.47;;;12.77;74.02
81224;BME280;70698;44.402;18.522;2023-08-12T02:04:40;98224.31;;;12.87;73.13
81224;BME280;70698;44.402;18.522;2023-08-12T02:07:05;98219.50;;;12.91;72.72
81224;BME280;70698;44.402;18.522;2023-08-12T02:09:31;98214.97;;;13.08;70.88
81224;BME280;70698;44.402;18.522;2023-08-12T02:11:57;98215.47;;;13.11;72.48
81224;BME280;70698;44.402;18.522;2023-08-12T02:14:23;98217.13;;;13.12;71.42
81224;BME280;70698;44.402;18.522;2023-08-12T02:16:48;98212.16;;;13.17;71.57
81224;BME280;70698;44.402;18.522;2023-08-12T02:19:14;98224.47;;;12.86;72.90
81224;BME280;70698;44.402;18.522;2023-08-12T02:21:41;98229.25;;;12.82;72.73
81224;BME280;70698;44.402;18.522;2023-08-12T02:24:07;98228.69;;;13.03;70.84
81224;BME280;70698;44.402;18.522;2023-08-12T02:26:32;98225.09;;;12.96;72.52
81224;BME280;70698;44.402;18.522;2023-08-12T02:28:58;98223.16;;;12.90;72.76
81224;BME280;70698;44.402;18.522;2023-08-12T02:31:24;98223.50;;;12.79;73.19
81224;BME280;70698;44.402;18.522;2023-08-12T02:33:50;98221.38;;;12.74;73.60
81224;BME280;70698;44.402;18.522;2023-08-12T02:36:16;98218.31;;;12.46;74.88
81224;BME280;70698;44.402;18.522;2023-08-12T02:38:41;98222.56;;;12.56;74.22
81224;BME280;70698;44.402;18.522;2023-08-12T02:41:08;98202.50;;;12.46;74.72
81224;BME280;70698;44.402;18.522;2023-08-12T02:43:34;98203.94;;;12.57;73.64
81224;BME280;70698;44.402;18.522;2023-08-12T02:46:01;98215.28;;;12.66;73.72
81224;BME280;70698;44.402;18.522;2023-08-12T02:48:27;98218.00;;;12.49;74.56
81224;BME280;70698;44.402;18.522;2023-08-12T02:50:53;98219.28;;;12.45;74.59
81224;BME280;70698;44.402;18.522;2023-08-12T02:53:18;98217.66;;;12.44;74.62
81224;BME280;70698;44.402;18.522;2023-08-12T02:55:47;98212.06;;;12.31;75.06
81224;BME280;70698;44.402;18.522;2023-08-12T02:58:12;98217.19;;;12.33;74.96
81224;BME280;70698;44.402;18.522;2023-08-12T03:00:42;98210.94;;;12.26;75.22
81224;BME280;70698;44.402;18.522;2023-08-12T03:03:11;98210.28;;;12.16;75.58
81224;BME280;70698;44.402;18.522;2023-08-12T03:05:36;98211.25;;;12.31;75.19
81224;BME280;70698;44.402;18.522;2023-08-12T03:08:04;98214.06;;;12.37;74.96
81224;BME280;70698;44.402;18.522;2023-08-12T03:10:30;98214.22;;;12.44;74.79
81224;BME280;70698;44.402;18.522;2023-08-12T03:12:56;98208.59;;;12.31;75.14
81224;BME280;70698;44.402;18.522;2023-08-12T03:15:22;98215.72;;;12.30;75.56
81224;BME280;70698;44.402;18.522;2023-08-12T03:17:48;98209.94;;;12.11;76.65
81224;BME280;70698;44.402;18.522;2023-08-12T03:20:15;98213.09;;;12.14;76.37
81224;BME280;70698;44.402;18.522;2023-08-12T03:22:41;98215.25;;;12.02;77.00
81224;BME280;70698;44.402;18.522;2023-08-12T03:25:07;98198.75;;;12.00;76.59
81224;BME280;70698;44.402;18.522;2023-08-12T03:27:33;98213.09;;;12.06;76.26
81224;BME280;70698;44.402;18.522;2023-08-12T03:29:59;98216.88;;;12.03;76.07
81224;BME280;70698;44.402;18.522;2023-08-12T03:32:25;98215.72;;;12.06;75.90
81224;BME280;70698;44.402;18.522;2023-08-12T03:34:52;98215.88;;;11.96;75.96
81224;BME280;70698;44.402;18.522;2023-08-12T03:37:18;98209.28;;;12.00;76.40
81224;BME280;70698;44.402;18.522;2023-08-12T03:39:46;98211.78;;;12.02;76.32
81224;BME280;70698;44.402;18.522;2023-08-12T03:42:12;98221.66;;;12.08;76.61
81224;BME280;70698;44.402;18.522;2023-08-12T03:44:38;98218.69;;;12.03;76.34
81224;BME280;70698;44.402;18.522;2023-08-12T03:47:05;98222.78;;;12.05;76.58
81224;BME280;70698;44.402;18.522;2023-08-12T03:49:31;98222.97;;;12.12;76.25
81224;BME280;70698;44.402;18.522;2023-08-12T03:51:56;98225.59;;;12.12;76.19
81224;BME280;70698;44.402;18.522;2023-08-12T03:54:22;98215.88;;;12.13;76.04
81224;BME280;70698;44.402;18.522;2023-08-12T03:56:48;98217.72;;;11.88;76.62
81224;BME280;70698;44.402;18.522;2023-08-12T03:59:14;98218.97;;;11.68;77.90
81224;BME280;70698;44.402;18.522;2023-08-12T04:01:40;98231.81;;;11.62;78.22
81224;BME280;70698;44.402;18.522;2023-08-12T04:04:06;98214.19;;;11.55;78.19
81224;BME280;70698;44.402;18.522;2023-08-12T04:06:32;98211.06;;;11.51;78.63
81224;BME280;70698;44.402;18.522;2023-08-12T04:08:57;98232.78;;;11.61;79.04
81224;BME280;70698;44.402;18.522;2023-08-12T04:11:23;98227.38;;;11.71;78.18
81224;BME280;70698;44.402;18.522;2023-08-12T04:13:49;98228.59;;;11.85;77.58
81224;BME280;70698;44.402;18.522;2023-08-12T04:16:14;98229.41;;;11.85;77.58
81224;BME280;70698;44.402;18.522;2023-08-12T04:18:40;98231.72;;;11.80;77.97
81224;BME280;70698;44.402;18.522;2023-08-12T04:21:05;98232.16;;;11.76;78.22
81224;BME280;70698;44.402;18.522;2023-08-12T04:23:31;98230.88;;;11.80;78.60
81224;BME280;70698;44.402;18.522;2023-08-12T04:25:56;98231.72;;;11.80;77.87
81224;BME280;70698;44.402;18.522;2023-08-12T04:28:26;98235.13;;;11.81;78.13
81224;BME280;70698;44.402;18.522;2023-08-12T04:30:51;98242.69;;;11.68;78.43
81224;BME280;70698;44.402;18.522;2023-08-12T04:33:19;98238.72;;;11.72;78.70
81224;BME280;70698;44.402;18.522;2023-08-12T04:35:48;98227.75;;;11.84;77.78
81224;BME280;70698;44.402;18.522;2023-08-12T04:38:16;98239.25;;;11.91;78.52
81224;BME280;70698;44.402;18.522;2023-08-12T04:40:42;98233.00;;;12.00;77.73
81224;BME280;70698;44.402;18.522;2023-08-12T04:43:09;98223.63;;;11.98;77.80
81224;BME280;70698;44.402;18.522;2023-08-12T04:45:37;98236.16;;;12.12;77.43
81224;BME280;70698;44.402;18.522;2023-08-12T04:48:05;98235.16;;;12.21;77.01
81224;BME280;70698;44.402;18.522;2023-08-12T04:50:32;98241.25;;;12.30;77.32
81224;BME280;70698;44.402;18.522;2023-08-12T04:53:00;98235.78;;;12.31;76.78
81224;BME280;70698;44.402;18.522;2023-08-12T04:55:27;98232.16;;;12.40;76.46
81224;BME280;70698;44.402;18.522;2023-08-12T04:57:53;98238.75;;;12.52;76.09
81224;BME280;70698;44.402;18.522;2023-08-12T05:00:20;98232.28;;;12.63;75.73
81224;BME280;70698;44.402;18.522;2023-08-12T05:02:46;98235.56;;;12.73;75.84
81224;BME280;70698;44.402;18.522;2023-08-12T05:05:12;98239.66;;;12.84;75.17
81224;BME280;70698;44.402;18.522;2023-08-12T05:07:37;98228.53;;;12.97;74.51
81224;BME280;70698;44.402;18.522;2023-08-12T05:10:03;98224.34;;;13.10;73.76
81224;BME280;70698;44.402;18.522;2023-08-12T05:12:31;98236.59;;;13.19;73.68
81224;BME280;70698;44.402;18.522;2023-08-12T05:14:56;98226.63;;;13.29;73.91
81224;BME280;70698;44.402;18.522;2023-08-12T05:17:22;98228.84;;;13.49;73.37
81224;BME280;70698;44.402;18.522;2023-08-12T05:19:48;98227.31;;;13.54;73.21
81224;BME280;70698;44.402;18.522;2023-08-12T05:22:14;98237.22;;;13.52;74.32
81224;BME280;70698;44.402;18.522;2023-08-12T05:24:39;98235.03;;;13.56;73.20
81224;BME280;70698;44.402;18.522;2023-08-12T05:27:05;98237.16;;;13.60;73.67
81224;BME280;70698;44.402;18.522;2023-08-12T05:29:30;98231.09;;;13.60;73.49
81224;BME280;70698;44.402;18.522;2023-08-12T05:31:56;98239.94;;;13.67;73.96
81224;BME280;70698;44.402;18.522;2023-08-12T05:34:22;98234.78;;;13.73;73.43
81224;BME280;70698;44.402;18.522;2023-08-12T05:36:47;98242.00;;;13.79;73.59
81224;BME280;70698;44.402;18.522;2023-08-12T05:39:13;98240.75;;;13.90;73.59
81224;BME280;70698;44.402;18.522;2023-08-12T05:41:40;98237.38;;;14.04;73.36
81224;BME280;70698;44.402;18.522;2023-08-12T05:44:06;98242.88;;;14.17;73.10
81224;BME280;70698;44.402;18.522;2023-08-12T05:46:32;98239.31;;;14.25;72.68
81224;BME280;70698;44.402;18.522;2023-08-12T05:48:57;98245.38;;;14.34;72.85
81224;BME280;70698;44.402;18.522;2023-08-12T05:51:23;98233.38;;;14.46;72.21
81224;BME280;70698;44.402;18.522;2023-08-12T05:53:48;98228.47;;;14.57;70.99
81224;BME280;70698;44.402;18.522;2023-08-12T05:56:14;98229.84;;;14.68;70.56
81224;BME280;70698;44.402;18.522;2023-08-12T05:58:39;98241.88;;;14.85;69.25
81224;BME280;70698;44.402;18.522;2023-08-12T06:01:05;98242.69;;;15.00;69.18
81224;BME280;70698;44.402;18.522;2023-08-12T06:03:31;98226.75;;;15.08;68.98
81224;BME280;70698;44.402;18.522;2023-08-12T06:05:56;98233.84;;;15.23;68.92
81224;BME280;70698;44.402;18.522;2023-08-12T06:08:22;98237.63;;;15.35;68.35
81224;BME280;70698;44.402;18.522;2023-08-12T06:10:47;98223.47;;;15.42;67.38
81224;BME280;70698;44.402;18.522;2023-08-12T06:13:13;98226.13;;;15.57;66.50
81224;BME280;70698;44.402;18.522;2023-08-12T06:15:38;98233.38;;;15.70;65.02
81224;BME280;70698;44.402;18.522;2023-08-12T06:18:05;98239.75;;;15.75;65.14
81224;BME280;70698;44.402;18.522;2023-08-12T06:20:30;98232.13;;;15.87;63.53
81224;BME280;70698;44.402;18.522;2023-08-12T06:22:56;98226.50;;;15.97;61.54
81224;BME280;70698;44.402;18.522;2023-08-12T06:25:22;98227.66;;;16.09;61.67
81224;BME280;70698;44.402;18.522;2023-08-12T06:27:47;98229.25;;;16.10;62.42
81224;BME280;70698;44.402;18.522;2023-08-12T06:30:13;98228.56;;;16.22;62.56
81224;BME280;70698;44.402;18.522;2023-08-12T06:32:39;98235.44;;;16.38;65.47
81224;BME280;70698;44.402;18.522;2023-08-12T06:35:05;98234.28;;;16.47;65.31
81224;BME280;70698;44.402;18.522;2023-08-12T06:37:31;98228.81;;;16.55;64.40
81224;BME280;70698;44.402;18.522;2023-08-12T06:39:57;98224.25;;;16.70;65.05
81224;BME280;70698;44.402;18.522;2023-08-12T06:42:22;98220.59;;;16.71;65.92
81224;BME280;70698;44.402;18.522;2023-08-12T06:44:56;98232.16;;;16.92;64.01
81224;BME280;70698;44.402;18.522;2023-08-12T06:47:22;98215.78;;;16.88;63.20
81224;BME280;70698;44.402;18.522;2023-08-12T06:49:48;98221.66;;;17.18;63.31
81224;BME280;70698;44.402;18.522;2023-08-12T06:52:14;98218.41;;;17.29;60.80
81224;BME280;70698;44.402;18.522;2023-08-12T06:54:39;98220.47;;;17.34;60.00
81224;BME280;70698;44.402;18.522;2023-08-12T06:57:05;98212.94;;;17.37;60.25
81224;BME280;70698;44.402;18.522;2023-08-12T06:59:31;98227.91;;;17.51;59.62
81224;BME280;70698;44.402;18.522;2023-08-12T07:01:56;98228.19;;;17.63;59.93
81224;BME280;70698;44.402;18.522;2023-08-12T07:04:22;98230.63;;;17.64;59.65
81224;BME280;70698;44.402;18.522;2023-08-12T07:06:48;98210.38;;;17.70;58.90
81224;BME280;70698;44.402;18.522;2023-08-12T07:09:13;98232.50;;;17.84;59.42
81224;BME280;70698;44.402;18.522;2023-08-12T07:11:40;98237.03;;;17.96;60.00
81224;BME280;70698;44.402;18.522;2023-08-12T07:14:05;98231.34;;;18.13;59.32
81224;BME280;70698;44.402;18.522;2023-08-12T07:16:31;98235.44;;;18.22;59.50
81224;BME280;70698;44.402;18.522;2023-08-12T07:18:56;98238.47;;;18.38;58.74
81224;BME280;70698;44.402;18.522;2023-08-12T07:21:25;98235.63;;;18.46;58.79
81224;BME280;70698;44.402;18.522;2023-08-12T07:23:50;98236.25;;;18.62;59.05
81224;BME280;70698;44.402;18.522;2023-08-12T07:26:16;98237.06;;;18.69;59.48
81224;BME280;70698;44.402;18.522;2023-08-12T07:28:41;98238.69;;;18.76;58.75
81224;BME280;70698;44.402;18.522;2023-08-12T07:31:07;98246.25;;;18.79;58.97
81224;BME280;70698;44.402;18.522;2023-08-12T07:33:34;98234.59;;;18.80;58.68
81224;BME280;70698;44.402;18.522;2023-08-12T07:35:59;98232.94;;;18.86;58.81
81224;BME280;70698;44.402;18.522;2023-08-12T07:38:25;98241.50;;;19.01;58.37
81224;BME280;70698;44.402;18.522;2023-08-12T07:40:51;98233.84;;;19.18;58.16
81224;BME280;70698;44.402;18.522;2023-08-12T07:43:16;98235.66;;;19.30;57.49
81224;BME280;70698;44.402;18.522;2023-08-12T07:45:42;98232.16;;;19.37;56.71
81224;BME280;70698;44.402;18.522;2023-08-12T07:48:07;98234.53;;;19.58;58.00
81224;BME280;70698;44.402;18.522;2023-08-12T07:50:33;98224.28;;;19.61;57.75
81224;BME280;70698;44.402;18.522;2023-08-12T07:52:58;98227.16;;;19.60;56.85
81224;BME280;70698;44.402;18.522;2023-08-12T07:55:24;98232.03;;;19.63;56.92
81224;BME280;70698;44.402;18.522;2023-08-12T07:57:50;98223.91;;;19.89;57.14
81224;BME280;70698;44.402;18.522;2023-08-12T08:00:18;98221.94;;;20.03;57.19
81224;BME280;70698;44.402;18.522;2023-08-12T08:02:43;98223.28;;;20.18;56.95
81224;BME280;70698;44.402;18.522;2023-08-12T08:05:09;98226.56;;;20.20;55.80
81224;BME280;70698;44.402;18.522;2023-08-12T08:07:35;98228.41;;;20.20;55.33
81224;BME280;70698;44.402;18.522;2023-08-12T08:10:00;98214.72;;;20.10;53.30
81224;BME280;70698;44.402;18.522;2023-08-12T08:12:26;98216.88;;;20.51;55.64
81224;BME280;70698;44.402;18.522;2023-08-12T08:14:51;98209.44;;;20.53;53.10
81224;BME280;70698;44.402;18.522;2023-08-12T08:17:17;98203.44;;;20.57;50.22
81224;BME280;70698;44.402;18.522;2023-08-12T08:19:42;98218.38;;;20.47;49.94
81224;BME280;70698;44.402;18.522;2023-08-12T08:22:08;98202.88;;;20.55;50.73
81224;BME280;70698;44.402;18.522;2023-08-12T08:24:34;98196.59;;;21.04;51.52
81224;BME280;70698;44.402;18.522;2023-08-12T08:26:59;98197.34;;;21.12;49.42
81224;BME280;70698;44.402;18.522;2023-08-12T08:29:25;98197.75;;;21.15;49.37
81224;BME280;70698;44.402;18.522;2023-08-12T08:31:50;98194.06;;;21.10;44.03
81224;BME280;70698;44.402;18.522;2023-08-12T08:34:16;98199.94;;;21.36;46.75
81224;BME280;70698;44.402;18.522;2023-08-12T08:36:42;98195.72;;;21.29;45.37
81224;BME280;70698;44.402;18.522;2023-08-12T08:39:08;98183.78;;;21.43;46.72
81224;BME280;70698;44.402;18.522;2023-08-12T08:41:38;98191.78;;;21.61;44.22
81224;BME280;70698;44.402;18.522;2023-08-12T08:44:07;98197.78;;;21.75;46.07
81224;BME280;70698;44.402;18.522;2023-08-12T08:46:32;98189.13;;;21.73;45.22
81224;BME280;70698;44.402;18.522;2023-08-12T08:48:58;98190.94;;;21.90;47.26
81224;BME280;70698;44.402;18.522;2023-08-12T08:51:25;98188.31;;;22.02;45.79
81224;BME280;70698;44.402;18.522;2023-08-12T08:53:54;98186.63;;;22.31;48.62
81224;BME280;70698;44.402;18.522;2023-08-12T08:56:20;98187.22;;;22.45;46.72
81224;BME280;70698;44.402;18.522;2023-08-12T08:58:46;98184.88;;;22.60;46.33
81224;BME280;70698;44.402;18.522;2023-08-12T09:01:12;98182.09;;;22.78;45.44
81224;BME280;70698;44.402;18.522;2023-08-12T09:03:40;98181.84;;;22.91;44.68
81224;BME280;70698;44.402;18.522;2023-08-12T09:06:06;98176.84;;;22.95;44.65
81224;BME280;70698;44.402;18.522;2023-08-12T09:08:32;98183.56;;;23.09;45.63
81224;BME280;70698;44.402;18.522;2023-08-12T09:11:00;98167.25;;;23.39;45.48
81224;BME280;70698;44.402;18.522;2023-08-12T09:13:27;98169.94;;;23.50;45.19
81224;BME280;70698;44.402;18.522;2023-08-12T09:15:53;98172.38;;;23.40;44.72
81224;BME280;70698;44.402;18.522;2023-08-12T09:18:20;98165.03;;;23.76;46.30
81224;BME280;70698;44.402;18.522;2023-08-12T09:20:53;98168.84;;;23.80;45.14
81224;BME280;70698;44.402;18.522;2023-08-12T09:23:19;98172.25;;;23.92;45.12
81224;BME280;70698;44.402;18.522;2023-08-12T09:25:45;98171.47;;;24.08;44.08
81224;BME280;70698;44.402;18.522;2023-08-12T09:28:11;98170.50;;;24.14;43.41
81224;BME280;70698;44.402;18.522;2023-08-12T09:30:37;98156.69;;;24.22;41.98
81224;BME280;70698;44.402;18.522;2023-08-12T09:33:05;98161.66;;;24.30;42.10
81224;BME280;70698;44.402;18.522;2023-08-12T09:35:33;98153.56;;;24.14;44.75
81224;BME280;70698;44.402;18.522;2023-08-12T09:38:01;98157.66;;;24.50;45.10
81224;BME280;70698;44.402;18.522;2023-08-12T09:40:28;98158.47;;;24.50;44.02
81224;BME280;70698;44.402;18.522;2023-08-12T09:42:54;98158.00;;;24.20;43.51
81224;BME280;70698;44.402;18.522;2023-08-12T09:45:23;98158.63;;;24.43;45.11
81224;BME280;70698;44.402;18.522;2023-08-12T09:47:49;98147.13;;;24.65;43.45
81224;BME280;70698;44.402;18.522;2023-08-12T09:50:15;98152.03;;;24.90;43.14
81224;BME280;70698;44.402;18.522;2023-08-12T09:52:40;98148.53;;;24.89;43.39
81224;BME280;70698;44.402;18.522;2023-08-12T09:55:07;98141.66;;;25.20;43.24
81224;BME280;70698;44.402;18.522;2023-08-12T09:57:35;98143.97;;;25.11;42.68
81224;BME280;70698;44.402;18.522;2023-08-12T10:00:04;98126.41;;;25.04;41.70
81224;BME280;70698;44.402;18.522;2023-08-12T10:02:34;98134.69;;;25.51;43.39
81224;BME280;70698;44.402;18.522;2023-08-12T10:05:00;98134.78;;;25.83;41.06
81224;BME280;70698;44.402;18.522;2023-08-12T10:07:27;98123.34;;;25.70;41.26
81224;BME280;70698;44.402;18.522;2023-08-12T10:09:53;98127.19;;;25.75;41.65
81224;BME280;70698;44.402;18.522;2023-08-12T10:12:20;98122.59;;;26.07;41.15
81224;BME280;70698;44.402;18.522;2023-08-12T10:14:47;98119.94;;;26.12;39.20
81224;BME280;70698;44.402;18.522;2023-08-12T10:17:13;98115.25;;;25.97;37.56
81224;BME280;70698;44.402;18.522;2023-08-12T10:19:44;98117.84;;;25.55;37.31
81224;BME280;70698;44.402;18.522;2023-08-12T10:22:10;98124.50;;;25.75;39.08
81224;BME280;70698;44.402;18.522;2023-08-12T10:24:36;98113.84;;;25.90;37.38
81224;BME280;70698;44.402;18.522;2023-08-12T10:27:02;98110.97;;;26.01;38.27
81224;BME280;70698;44.402;18.522;2023-08-12T10:29:29;98112.75;;;26.23;38.36
81224;BME280;70698;44.402;18.522;2023-08-12T10:31:57;98112.63;;;26.07;38.32
81224;BME280;70698;44.402;18.522;2023-08-12T10:34:24;98106.59;;;25.95;36.86
81224;BME280;70698;44.402;18.522;2023-08-12T10:36:58;98093.53;;;26.09;37.40
81224;BME280;70698;44.402;18.522;2023-08-12T10:39:26;98104.06;;;26.52;37.77
81224;BME280;70698;44.402;18.522;2023-08-12T10:41:55;98103.53;;;26.55;36.74
81224;BME280;70698;44.402;18.522;2023-08-12T10:44:26;98098.50;;;26.74;36.13
81224;BME280;70698;44.402;18.522;2023-08-12T10:46:53;98095.50;;;26.71;35.15
81224;BME280;70698;44.402;18.522;2023-08-12T10:49:20;98093.78;;;27.07;35.50
81224;BME280;70698;44.402;18.522;2023-08-12T10:57:04;98083.91;;;27.42;35.71
81224;BME280;70698;44.402;18.522;2023-08-12T11:02:31;98083.63;;;27.39;34.02
81224;BME280;70698;44.402;18.522;2023-08-12T11:05:10;98086.81;;;27.21;32.69
81224;BME280;70698;44.402;18.522;2023-08-12T11:07:44;98090.09;;;27.38;33.65
81224;BME280;70698;44.402;18.522;2023-08-12T11:12:38;98073.41;;;27.76;33.79
81224;BME280;70698;44.402;18.522;2023-08-12T11:15:04;98073.41;;;27.56;31.64
81224;BME280;70698;44.402;18.522;2023-08-12T11:17:39;98070.97;;;27.55;31.28
81224;BME280;70698;44.402;18.522;2023-08-12T11:20:06;98071.78;;;27.65;33.43
81224;BME280;70698;44.402;18.522;2023-08-12T11:22:36;98070.47;;;27.73;30.99
81224;BME280;70698;44.402;18.522;2023-08-12T11:25:04;98072.59;;;27.96;32.79
81224;BME280;70698;44.402;18.522;2023-08-12T11:27:39;98060.16;;;28.10;31.54
81224;BME280;70698;44.402;18.522;2023-08-12T11:30:06;98048.59;;;27.64;31.99
81224;BME280;70698;44.402;18.522;2023-08-12T11:32:31;98062.34;;;27.63;32.38
81224;BME280;70698;44.402;18.522;2023-08-12T11:34:57;98057.22;;;27.56;31.42
81224;BME280;70698;44.402;18.522;2023-08-12T11:37:23;98058.78;;;27.27;33.01
81224;BME280;70698;44.402;18.522;2023-08-12T11:39:52;98056.97;;;27.73;31.14
81224;BME280;70698;44.402;18.522;2023-08-12T11:42:18;98061.81;;;27.66;33.36
81224;BME280;70698;44.402;18.522;2023-08-12T11:44:43;98041.00;;;27.81;31.39
81224;BME280;70698;44.402;18.522;2023-08-12T11:47:09;98042.09;;;27.80;32.86
81224;BME280;70698;44.402;18.522;2023-08-12T11:49:34;98044.47;;;28.33;32.76
81224;BME280;70698;44.402;18.522;2023-08-12T11:52:00;98040.50;;;27.79;31.99
81224;BME280;70698;44.402;18.522;2023-08-12T11:54:26;98044.78;;;27.91;32.17
81224;BME280;70698;44.402;18.522;2023-08-12T11:56:53;98040.97;;;28.22;31.49
81224;BME280;70698;44.402;18.522;2023-08-12T11:59:21;98028.00;;;28.24;32.02
81224;BME280;70698;44.402;18.522;2023-08-12T12:01:48;98029.00;;;28.53;31.16
81224;BME280;70698;44.402;18.522;2023-08-12T12:04:15;98023.84;;;28.52;30.74
81224;BME280;70698;44.402;18.522;2023-08-12T12:06:41;98019.00;;;28.49;32.92
81224;BME280;70698;44.402;18.522;2023-08-12T12:09:08;98022.75;;;28.63;31.76
81224;BME280;70698;44.402;18.522;2023-08-12T12:11:37;98017.56;;;28.77;32.39
81224;BME280;70698;44.402;18.522;2023-08-12T12:14:03;98008.13;;;28.64;31.82
81224;BME280;70698;44.402;18.522;2023-08-12T12:16:46;98011.91;;;29.17;30.79
81224;BME280;70698;44.402;18.522;2023-08-12T12:19:16;98003.34;;;29.00;31.25
81224;BME280;70698;44.402;18.522;2023-08-12T12:21:46;98003.25;;;29.15;29.92
81224;BME280;70698;44.402;18.522;2023-08-12T12:24:12;98002.94;;;28.78;30.09
81224;BME280;70698;44.402;18.522;2023-08-12T12:26:38;98004.66;;;29.07;31.69
81224;BME280;70698;44.402;18.522;2023-08-12T12:29:04;98006.41;;;28.88;30.05
81224;BME280;70698;44.402;18.522;2023-08-12T12:31:35;98005.13;;;28.65;29.59
81224;BME280;70698;44.402;18.522;2023-08-12T12:34:04;97997.84;;;29.15;30.62
81224;BME280;70698;44.402;18.522;2023-08-12T12:36:34;97993.88;;;29.02;31.56
81224;BME280;70698;44.402;18.522;2023-08-12T12:39:00;97987.38;;;29.42;30.30
81224;BME280;70698;44.402;18.522;2023-08-12T12:41:27;97998.34;;;29.22;30.49
81224;BME280;70698;44.402;18.522;2023-08-12T12:43:53;97990.41;;;29.36;30.89
81224;BME280;70698;44.402;18.522;2023-08-12T12:46:18;97986.38;;;29.96;30.49
81224;BME280;70698;44.402;18.522;2023-08-12T12:48:44;97991.63;;;29.54;29.14
81224;BME280;70698;44.402;18.522;2023-08-12T12:51:11;97981.53;;;30.41;28.74
81224;BME280;70698;44.402;18.522;2023-08-12T12:53:38;97987.56;;;30.38;28.01
81224;BME280;70698;44.402;18.522;2023-08-12T12:56:03;97986.72;;;29.89;28.69
81224;BME280;70698;44.402;18.522;2023-08-12T12:58:33;97983.50;;;29.54;29.09